Time;durP1;ratioP1;P1;durP2;ratioP2;P2;SDS_P1;SDS_P2;PMS_P1;PMS_P2;Temp;Humidity;BMP_temperature;BMP_pressure;BME280_temperature;BME280_humidity;BME280_pressure;Samples;Min_cycle;Max_cycle;Signal;HPM_P1;HPM_P2
2022/03/03 00:00:00;;;;;;;;;;;;;;;27.02;60.11;96734.33;586610;242;66487;-71
2022/03/03 00:02:27;;;;;;;;;;;;;;;27.01;60.62;96738.94;586628;242;63092;-71
2022/03/03 00:04:56;;;;;;;;;;;;;;;27.00;61.58;96736.55;586591;242;66436;-71
2022/03/03 00:07:24;;;;;;;;;;;;;;;26.99;60.97;96732.27;586662;242;68499;-71
2022/03/03 00:09:51;;;;;;;;;;;;;;;26.98;60.83;96728.78;586615;242;65455;-71
2022/03/03 00:12:19;;;;;;;;;;;;;;;26.99;60.39;96726.88;586655;242;68295;-71
2022/03/03 00:14:46;;;;;;;;;;;;;;;26.97;60.93;96726.39;586605;242;68546;-71
2022/03/03 00:17:13;;;;;;;;;;;;;;;26.97;60.57;96729.09;586581;242;65122;-71
2022/03/03 00:19:42;;;;;;;;;;;;;;;26.95;61.21;96723.21;586648;242;68957;-71
2022/03/03 00:22:10;;;;;;;;;;;;;;;26.94;61.24;96724.33;586607;242;66430;-71
2022/03/03 00:24:38;;;;;;;;;;;;;;;26.93;61.02;96720.84;586621;242;65148;-71
2022/03/03 00:27:06;;;;;;;;;;;;;;;26.91;59.86;96722.27;586594;242;68631;-71
2022/03/03 00:29:34;;;;;;;;;;;;;;;26.91;61.25;96723.06;586632;242;68520;-70
2022/03/03 00:32:02;;;;;;;;;;;;;;;26.91;60.94;96722.27;586574;242;65213;-70
2022/03/03 00:34:30;;;;;;;;;;;;;;;26.89;61.42;96724.48;586650;242;66491;-70
2022/03/03 00:36:57;;;;;;;;;;;;;;;26.89;61.36;96719.09;586612;242;66327;-71
2022/03/03 00:39:25;;;;;;;;;;;;;;;26.88;60.39;96728.30;586609;242;63070;-71
2022/03/03 00:41:52;;;;;;;;;;;;;;;26.87;60.82;96718.61;586545;242;66388;-70
2022/03/03 00:44:20;;;;;;;;;;;;;;;26.85;61.39;96713.55;586582;241;66465;-70
2022/03/03 00:46:47;;;;;;;;;;;;;;;26.83;60.37;96713.06;586639;242;62931;-70
2022/03/03 00:49:15;;;;;;;;;;;;;;;26.82;60.46;96716.88;586598;242;66706;-70
2022/03/03 00:51:42;;;;;;;;;;;;;;;26.82;61.40;96708.80;586597;242;68506;-70
2022/03/03 00:54:10;;;;;;;;;;;;;;;26.82;60.16;96714.19;586600;242;65485;-70
2022/03/03 00:56:37;;;;;;;;;;;;;;;26.79;61.68;96712.09;586642;242;68402;-70
2022/03/03 00:59:05;;;;;;;;;;;;;;;26.78;60.50;96708.61;586666;242;68027;-70
2022/03/03 01:01:32;;;;;;;;;;;;;;;26.78;61.61;96714.00;586621;242;62989;-70
2022/03/03 01:04:00;;;;;;;;;;;;;;;26.77;61.77;96717.81;586612;242;68047;-70
2022/03/03 01:06:27;;;;;;;;;;;;;;;26.76;60.43;96710.03;586614;242;66577;-70
2022/03/03 01:08:55;;;;;;;;;;;;;;;26.75;60.70;96713.84;586625;242;63016;-70
2022/03/03 01:11:22;;;;;;;;;;;;;;;26.74;61.38;96713.06;586659;242;68768;-70
2022/03/03 01:13:50;;;;;;;;;;;;;;;26.74;61.62;96709.58;586632;242;68349;-70
2022/03/03 01:16:17;;;;;;;;;;;;;;;26.72;60.40;96711.79;586616;242;65260;-70
2022/03/03 01:18:45;;;;;;;;;;;;;;;26.71;61.93;96713.70;586629;242;68304;-70
2022/03/03 01:21:12;;;;;;;;;;;;;;;26.69;60.92;96713.21;586612;242;69437;-71
2022/03/03 01:23:40;;;;;;;;;;;;;;;26.69;61.01;96709.73;586640;242;65058;-71
2022/03/03 01:26:08;;;;;;;;;;;;;;;26.69;61.03;96707.03;586604;242;65746;-71
2022/03/03 01:28:35;;;;;;;;;;;;;;;26.68;62.19;96706.25;586599;242;66493;-72
2022/03/03 01:31:03;;;;;;;;;;;;;;;26.66;61.35;96704.97;586581;242;63081;-71
2022/03/03 01:33:30;;;;;;;;;;;;;;;26.66;62.54;96702.27;586616;242;66687;-71
2022/03/03 01:35:58;;;;;;;;;;;;;;;26.65;62.19;96700.67;586608;242;66513;-71
2022/03/03 01:38:25;;;;;;;;;;;;;;;26.64;63.00;96702.58;586616;242;65217;-72
2022/03/03 01:40:53;;;;;;;;;;;;;;;26.62;62.16;96695.91;586599;242;68643;-70
2022/03/03 01:43:20;;;;;;;;;;;;;;;26.61;61.93;96689.73;586570;241;68437;-70
2022/03/03 01:45:48;;;;;;;;;;;;;;;26.60;61.78;96688.16;586596;242;65383;-70
2022/03/03 01:48:15;;;;;;;;;;;;;;;26.60;62.42;96692.73;586627;242;68749;-70
2022/03/03 01:50:43;;;;;;;;;;;;;;;26.60;62.78;96690.86;586591;242;68542;-70
2022/03/03 01:53:10;;;;;;;;;;;;;;;26.58;62.18;96687.67;586506;242;65467;-70
2022/03/03 01:55:38;;;;;;;;;;;;;;;26.56;62.35;96690.67;586580;242;68742;-70
2022/03/03 01:58:05;;;;;;;;;;;;;;;26.56;61.95;96690.67;586574;242;68521;-70
2022/03/03 02:00:34;;;;;;;;;;;;;;;26.57;62.38;96691.45;586645;242;65473;-71
2022/03/03 02:03:01;;;;;;;;;;;;;;;26.54;61.19;96690.19;586603;242;66257;-71
2022/03/03 02:05:30;;;;;;;;;;;;;;;26.55;62.79;96688.31;586586;242;68660;-71
2022/03/03 02:07:58;;;;;;;;;;;;;;;26.53;62.04;96687.82;586594;242;63264;-71
2022/03/03 02:10:25;;;;;;;;;;;;;;;26.52;61.56;96689.73;586614;242;68599;-71
2022/03/03 02:12:53;;;;;;;;;;;;;;;26.53;60.87;96690.52;586668;242;67927;-72
2022/03/03 02:15:21;;;;;;;;;;;;;;;26.51;62.17;96690.03;586633;242;64959;-71
2022/03/03 02:17:48;;;;;;;;;;;;;;;26.51;61.89;96687.34;586631;242;68395;-71
2022/03/03 02:20:26;;;;;;;;;;;;;;;26.49;61.27;96681.43;586537;242;68608;-71
2022/03/03 02:22:55;;;;;;;;;;;;;;;26.48;61.17;96687.94;586631;242;65488;-71
2022/03/03 02:25:23;;;;;;;;;;;;;;;26.48;61.75;96687.94;586618;242;66038;-71
2022/03/03 02:27:50;;;;;;;;;;;;;;;26.47;62.69;96686.36;586657;242;68463;-70
2022/03/03 02:30:19;;;;;;;;;;;;;;;26.44;60.98;96682.39;586619;242;65283;-71
2022/03/03 02:32:47;;;;;;;;;;;;;;;26.44;62.26;96681.61;586582;242;68378;-71
2022/03/03 02:35:15;;;;;;;;;;;;;;;26.42;60.54;96675.73;586608;242;66070;-71
2022/03/03 02:37:44;;;;;;;;;;;;;;;26.43;63.27;96672.70;586661;242;63023;-71
2022/03/03 02:40:12;;;;;;;;;;;;;;;26.43;63.38;96677.30;586662;242;68388;-71
2022/03/03 02:42:40;;;;;;;;;;;;;;;26.42;62.20;96681.12;587207;240;68564;-72
2022/03/03 02:45:08;;;;;;;;;;;;;;;26.41;63.10;96676.82;589339;240;65220;-72
2022/03/03 02:47:36;;;;;;;;;;;;;;;26.39;62.30;96674.45;589361;240;68676;-72
2022/03/03 02:50:04;;;;;;;;;;;;;;;26.39;62.83;96669.07;589347;239;66204;-72
2022/03/03 02:52:31;;;;;;;;;;;;;;;26.39;62.05;96665.59;591271;240;62990;-73
2022/03/03 02:54:59;;;;;;;;;;;;;;;26.37;62.20;96665.89;589445;240;66240;-72
2022/03/03 03:00:13;;;;;;;;;;;;;;;26.35;62.57;96658.14;587710;241;65558;-71
2022/03/03 03:02:40;;;;;;;;;;;;;;;26.34;62.57;96667.31;587751;241;66314;-72
2022/03/03 03:05:08;;;;;;;;;;;;;;;26.34;63.03;96664.61;587687;241;66345;-72
2022/03/03 03:07:35;;;;;;;;;;;;;;;26.32;61.62;96666.82;587757;241;62816;-72
2022/03/03 03:10:03;;;;;;;;;;;;;;;26.31;60.41;96672.54;587666;241;66197;-72
2022/03/03 03:12:31;;;;;;;;;;;;;;;26.31;62.46;96669.84;587678;241;66486;-72
2022/03/03 03:14:58;;;;;;;;;;;;;;;26.31;62.44;96672.54;587717;241;63144;-72
2022/03/03 03:17:26;;;;;;;;;;;;;;;26.29;62.54;96666.66;587734;241;66160;-72
2022/03/03 03:19:56;;;;;;;;;;;;;;;26.28;62.21;96667.78;587749;241;68501;-72
2022/03/03 03:22:23;;;;;;;;;;;;;;;26.27;61.07;96664.30;587732;241;65114;-72
2022/03/03 03:24:50;;;;;;;;;;;;;;;26.26;61.41;96670.77;587704;241;68330;-72
2022/03/03 03:27:18;;;;;;;;;;;;;;;26.24;59.63;96666.81;587755;241;65944;-72
2022/03/03 03:29:45;;;;;;;;;;;;;;;26.24;60.94;96667.59;587733;241;63008;-72
2022/03/03 03:32:13;;;;;;;;;;;;;;;26.25;61.30;96674.59;587745;241;68365;-72
2022/03/03 03:34:40;;;;;;;;;;;;;;;26.22;62.86;96677.91;587700;241;68597;-72
2022/03/03 03:37:07;;;;;;;;;;;;;;;26.22;61.72;96669.83;587717;241;65147;-72
2022/03/03 03:39:35;;;;;;;;;;;;;;;26.21;59.22;96670.92;587705;241;68349;-72
2022/03/03 03:42:03;;;;;;;;;;;;;;;26.20;61.20;96666.66;587721;241;68430;-72
2022/03/03 03:44:30;;;;;;;;;;;;;;;26.19;60.20;96665.08;587171;241;65320;-72
2022/03/03 03:46:58;;;;;;;;;;;;;;;26.20;62.24;96663.17;587267;241;68314;-73
2022/03/03 03:49:25;;;;;;;;;;;;;;;26.16;62.55;96665.67;587190;241;66298;-73
2022/03/03 03:51:53;;;;;;;;;;;;;;;26.17;62.84;96658.41;587138;241;63894;-72
2022/03/03 03:54:20;;;;;;;;;;;;;;;26.17;63.36;96663.80;587192;241;68099;-72
2022/03/03 03:56:47;;;;;;;;;;;;;;;26.16;63.14;96671.06;587158;240;68348;-72
2022/03/03 03:59:15;;;;;;;;;;;;;;;26.15;62.74;96664.09;587222;241;63063;-72
2022/03/03 04:01:44;;;;;;;;;;;;;;;26.12;63.03;96660.13;587214;241;68624;-72
2022/03/03 04:04:12;;;;;;;;;;;;;;;26.13;62.80;96666.30;587208;241;68352;-72
2022/03/03 04:06:40;;;;;;;;;;;;;;;26.11;62.43;96663.94;587188;241;65373;-72
2022/03/03 04:09:07;;;;;;;;;;;;;;;26.10;62.65;96659.64;587206;241;66144;-72
2022/03/03 04:11:35;;;;;;;;;;;;;;;26.09;62.67;96660.76;587256;241;66330;-72
2022/03/03 04:14:02;;;;;;;;;;;;;;;26.09;61.28;96657.28;587193;241;63010;-72
2022/03/03 04:16:30;;;;;;;;;;;;;;;26.06;60.30;96660.59;587215;241;68342;-72
2022/03/03 04:18:58;;;;;;;;;;;;;;;26.07;61.59;96662.17;587202;241;68383;-72
2022/03/03 04:21:26;;;;;;;;;;;;;;;26.06;60.77;96660.59;587207;241;62989;-73
2022/03/03 04:23:54;;;;;;;;;;;;;;;26.06;62.76;96663.30;587241;241;66150;-73
2022/03/03 04:26:21;;;;;;;;;;;;;;;26.05;62.47;96650.91;587205;241;68392;-73
2022/03/03 04:28:48;;;;;;;;;;;;;;;26.03;62.34;96651.24;587189;241;65115;-73
2022/03/03 04:31:16;;;;;;;;;;;;;;;26.03;61.69;96655.84;587195;241;66151;-73
2022/03/03 04:33:43;;;;;;;;;;;;;;;26.01;61.17;96648.06;587194;241;66304;-73
2022/03/03 04:36:11;;;;;;;;;;;;;;;25.99;58.68;96649.48;587201;241;65368;-73
2022/03/03 04:38:38;;;;;;;;;;;;;;;26.00;62.45;96645.67;587236;241;68312;-73
2022/03/03 04:41:06;;;;;;;;;;;;;;;26.00;63.79;96651.05;587219;241;67795;-73
2022/03/03 04:43:33;;;;;;;;;;;;;;;25.96;61.59;96640.13;587835;241;65275;-74
2022/03/03 04:46:01;;;;;;;;;;;;;;;26.00;61.82;96642.98;588248;241;68450;-73
2022/03/03 04:48:31;;;;;;;;;;;;;;;25.97;63.56;96641.70;588265;241;68534;-73
2022/03/03 04:50:59;;;;;;;;;;;;;;;25.94;60.33;96646.92;588346;241;63086;-73
2022/03/03 04:53:27;;;;;;;;;;;;;;;25.95;63.20;96643.94;588284;241;67113;-73
2022/03/03 04:55:55;;;;;;;;;;;;;;;25.95;62.70;96640.45;588272;241;68346;-73
2022/03/03 04:58:23;;;;;;;;;;;;;;;25.94;61.24;96644.23;588297;241;65387;-73
2022/03/03 05:00:50;;;;;;;;;;;;;;;25.92;62.62;96639.17;588282;241;68354;-73
2022/03/03 05:03:18;;;;;;;;;;;;;;;25.91;62.49;96651.03;588349;241;67961;-73
2022/03/03 05:05:46;;;;;;;;;;;;;;;25.89;61.67;96645.16;588334;241;63119;-73
2022/03/03 05:08:13;;;;;;;;;;;;;;;25.91;61.96;96641.05;588371;241;65670;-73
2022/03/03 05:10:41;;;;;;;;;;;;;;;25.89;63.87;96640.59;588297;241;65909;-73
2022/03/03 05:13:08;;;;;;;;;;;;;;;25.86;63.41;96635.83;588259;241;63007;-73
2022/03/03 05:15:37;;;;;;;;;;;;;;;25.86;62.39;96638.53;588342;239;66199;-73
2022/03/03 05:18:05;;;;;;;;;;;;;;;25.86;61.78;96635.83;588311;241;65951;-73
2022/03/03 05:20:32;;;;;;;;;;;;;;;25.85;63.84;96633.44;588301;241;63972;-73
2022/03/03 05:22:59;;;;;;;;;;;;;;;25.84;63.71;96642.63;588311;240;67224;-73
2022/03/03 05:25:27;;;;;;;;;;;;;;;25.84;62.90;96637.25;588303;241;67968;-73
2022/03/03 05:27:54;;;;;;;;;;;;;;;25.82;62.36;96645.59;588282;241;65409;-72
2022/03/03 05:30:22;;;;;;;;;;;;;;;25.82;63.95;96640.20;588360;241;66479;-72
2022/03/03 05:32:50;;;;;;;;;;;;;;;25.82;63.57;96642.11;588284;241;68754;-72
2022/03/03 05:35:18;;;;;;;;;;;;;;;25.80;63.43;96637.03;588271;241;65128;-72
2022/03/03 05:37:49;;;;;;;;;;;;;;;25.80;63.66;96641.63;588272;241;68498;-72
2022/03/03 05:40:22;;;;;;;;;;;;;;;25.76;63.93;96640.67;588230;241;66525;-72
2022/03/03 05:42:50;;;;;;;;;;;;;;;25.75;63.46;96639.85;587790;241;65445;-72
2022/03/03 05:45:18;;;;;;;;;;;;;;;25.77;63.63;96634.17;586678;242;66146;-71
2022/03/03 05:47:49;;;;;;;;;;;;;;;25.73;63.39;96631.32;586548;240;50768;-72
2022/03/03 05:50:16;;;;;;;;;;;;;;;25.72;63.67;96635.09;586685;242;65526;-73
2022/03/03 05:52:43;;;;;;;;;;;;;;;25.74;64.36;96634.80;586656;242;68310;-72
2022/03/03 05:55:12;;;;;;;;;;;;;;;25.73;64.05;96642.09;586705;242;68072;-72
2022/03/03 05:57:42;;;;;;;;;;;;;;;25.69;63.44;96636.52;586742;242;65367;-72
2022/03/03 06:00:12;;;;;;;;;;;;;;;25.68;64.22;96632.24;586663;242;68351;-72
2022/03/03 06:02:53;;;;;;;;;;;;;;;25.68;63.81;96642.22;586654;242;66685;-72
2022/03/03 06:05:22;;;;;;;;;;;;;;;25.66;63.25;96630.96;586489;240;65136;-71
2022/03/03 06:08:00;;;;;;;;;;;;;;;25.68;64.01;96636.84;586494;240;68379;-72
2022/03/03 06:10:31;;;;;;;;;;;;;;;25.65;63.98;96635.56;583931;240;49440;-71
2022/03/03 06:13:00;;;;;;;;;;;;;;;25.65;64.36;96645.53;586729;242;65363;-72
2022/03/03 06:15:29;;;;;;;;;;;;;;;25.63;64.72;96637.76;586579;240;68491;-73
2022/03/03 06:17:56;;;;;;;;;;;;;;;25.63;64.48;96645.05;586600;242;68693;-72
2022/03/03 06:20:24;;;;;;;;;;;;;;;25.63;65.08;96647.73;586676;242;63063;-73
2022/03/03 06:22:52;;;;;;;;;;;;;;;25.61;64.69;96639.17;586665;242;68324;-73
2022/03/03 06:25:20;;;;;;;;;;;;;;;25.60;64.44;96642.97;586666;242;69158;-73
2022/03/03 06:27:49;;;;;;;;;;;;;;;25.59;65.20;96641.37;586640;242;65415;-74
2022/03/03 06:30:16;;;;;;;;;;;;;;;25.58;65.29;96637.10;586604;242;68913;-74
2022/03/03 06:32:44;;;;;;;;;;;;;;;25.55;64.64;96638.52;586520;242;68643;-73
2022/03/03 06:35:11;;;;;;;;;;;;;;;25.58;64.93;96639.80;586654;242;65360;-73
2022/03/03 06:37:39;;;;;;;;;;;;;;;25.56;64.10;96639.30;586708;242;66475;-73
2022/03/03 06:40:06;;;;;;;;;;;;;;;25.55;64.75;96641.20;586642;242;66509;-73
2022/03/03 06:42:34;;;;;;;;;;;;;;;25.54;64.60;96638.84;586877;240;63034;-73
2022/03/03 06:45:02;;;;;;;;;;;;;;;25.53;64.34;96639.92;588318;241;66609;-73
2022/03/03 06:47:29;;;;;;;;;;;;;;;25.50;64.45;96640.55;588279;241;69550;-73
2022/03/03 06:49:56;;;;;;;;;;;;;;;25.50;65.32;96654.78;588372;241;65133;-73
2022/03/03 06:52:31;;;;;;;;;;;;;;;25.51;63.21;96647.50;588299;241;68600;-72
2022/03/03 06:54:56;;;;;;;;;;;;;;;25.52;63.78;96651.80;588198;239;66496;-73
2022/03/03 06:57:24;;;;;;;;;;;;;;;25.50;65.65;96659.38;588333;241;65338;-73
2022/03/03 06:59:55;;;;;;;;;;;;;;;25.48;64.24;96654.30;588304;241;68635;-73
2022/03/03 07:02:23;;;;;;;;;;;;;;;25.45;64.57;96658.42;588374;241;68780;-64
2022/03/03 07:04:51;;;;;;;;;;;;;;;25.42;59.94;96653.63;588343;240;65294;-73
2022/03/03 07:07:20;;;;;;;;;;;;;;;25.47;62.96;96660.78;588374;241;68645;-73
2022/03/03 07:09:47;;;;;;;;;;;;;;;25.46;64.34;96654.62;588356;240;68295;-69
2022/03/03 07:12:20;;;;;;;;;;;;;;;25.45;63.71;96662.98;587737;241;64928;-73
2022/03/03 07:14:45;;;;;;;;;;;;;;;25.45;63.92;96660.30;588165;240;66643;-72
2022/03/03 07:17:14;;;;;;;;;;;;;;;25.46;61.30;96656.52;588357;241;68932;-72
2022/03/03 07:19:43;;;;;;;;;;;;;;;25.45;62.87;96657.61;587579;241;65390;-72
2022/03/03 07:22:15;;;;;;;;;;;;;;;25.46;63.79;96654.62;588089;240;69123;-73
2022/03/03 07:24:47;;;;;;;;;;;;;;;25.45;63.82;96663.80;588237;239;68325;-70
2022/03/03 07:27:19;;;;;;;;;;;;;;;25.46;64.59;96662.69;588250;241;65530;-74
2022/03/03 07:29:57;;;;;;;;;;;;;;;25.43;63.62;96660.63;588052;240;68939;-65
2022/03/03 07:32:27;;;;;;;;;;;;;;;25.45;64.69;96658.42;582503;243;68835;-65
2022/03/03 07:34:56;;;;;;;;;;;;;;;25.46;64.04;96660.00;580881;244;65306;-66
2022/03/03 07:37:25;;;;;;;;;;;;;;;25.45;64.52;96662.98;588710;241;68565;-66
2022/03/03 07:39:53;;;;;;;;;;;;;;;25.43;63.54;96660.63;588695;241;68761;-71
2022/03/03 07:42:21;;;;;;;;;;;;;;;25.39;63.37;96658.84;588408;241;65326;-71
2022/03/03 07:44:49;;;;;;;;;;;;;;;25.40;63.74;96660.42;589187;240;69093;-65
2022/03/03 07:47:16;;;;;;;;;;;;;;;25.40;63.96;96668.48;591874;239;66342;-65
2022/03/03 07:49:45;;;;;;;;;;;;;;;25.43;58.82;96666.00;591822;239;63025;-62
2022/03/03 07:52:13;;;;;;;;;;;;;;;25.38;58.36;96663.44;591824;239;68973;-66
2022/03/03 07:54:41;;;;;;;;;;;;;;;25.38;57.72;96674.20;591897;239;68721;-67
2022/03/03 07:57:09;;;;;;;;;;;;;;;25.51;58.89;96663.64;591867;239;65512;-61
2022/03/03 07:59:38;;;;;;;;;;;;;;;25.55;58.16;96661.94;591863;239;68853;-66
2022/03/03 08:02:06;;;;;;;;;;;;;;;25.49;58.08;96665.88;591769;239;68734;-61
2022/03/03 08:04:34;;;;;;;;;;;;;;;25.53;58.94;96666.83;591850;239;63208;-66
2022/03/03 08:07:06;;;;;;;;;;;;;;;25.58;57.19;96655.94;591806;239;68809;-65
2022/03/03 08:09:36;;;;;;;;;;;;;;;25.56;62.78;96666.20;591685;239;68659;-65
2022/03/03 08:12:05;;;;;;;;;;;;;;;25.50;63.17;96664.76;591674;239;65554;-64
2022/03/03 08:14:33;;;;;;;;;;;;;;;25.50;60.68;96654.00;591743;239;69314;-71
2022/03/03 08:17:01;;;;;;;;;;;;;;;25.37;58.03;96661.86;591763;239;66299;-65
2022/03/03 08:19:31;;;;;;;;;;;;;;;25.41;60.91;96662.03;591670;239;63169;-66
2022/03/03 08:21:59;;;;;;;;;;;;;;;25.44;62.18;96651.44;591771;239;68876;-66
2022/03/03 08:24:27;;;;;;;;;;;;;;;25.47;60.88;96656.19;591801;239;68430;-73
2022/03/03 08:26:56;;;;;;;;;;;;;;;25.49;62.54;96657.80;591824;239;65413;-76
2022/03/03 08:29:24;;;;;;;;;;;;;;;25.46;63.40;96648.45;591771;239;68919;-65
2022/03/03 08:31:56;;;;;;;;;;;;;;;25.46;62.95;96660.00;591683;239;66967;-66
2022/03/03 08:34:25;;;;;;;;;;;;;;;25.46;62.77;96651.92;591848;239;65176;-64
2022/03/03 08:36:54;;;;;;;;;;;;;;;25.45;61.74;96655.73;591794;239;68827;-65
2022/03/03 08:39:28;;;;;;;;;;;;;;;25.46;62.48;96659.20;591684;239;68513;-67
2022/03/03 08:41:54;;;;;;;;;;;;;;;25.47;61.65;96656.19;591716;239;65317;-66
2022/03/03 08:44:23;;;;;;;;;;;;;;;25.50;62.70;96659.38;590129;239;68688;-64
2022/03/03 08:46:51;;;;;;;;;;;;;;;25.51;63.42;96660.95;590027;240;68761;-64
2022/03/03 08:49:19;;;;;;;;;;;;;;;25.50;62.79;96654.00;590088;240;65301;-64
2022/03/03 08:51:46;;;;;;;;;;;;;;;25.53;63.09;96666.83;589931;240;68486;-61
2022/03/03 08:54:14;;;;;;;;;;;;;;;25.54;62.13;96665.74;590062;240;68807;-62
2022/03/03 08:56:41;;;;;;;;;;;;;;;25.55;63.14;96668.11;590062;240;63085;-62
2022/03/03 08:59:09;;;;;;;;;;;;;;;25.56;62.09;96668.90;589970;240;66700;-67
2022/03/03 09:01:36;;;;;;;;;;;;;;;25.54;58.28;96663.05;589991;240;66523;-64
2022/03/03 09:04:05;;;;;;;;;;;;;;;25.58;60.88;96664.01;590016;240;63184;-65
2022/03/03 09:06:33;;;;;;;;;;;;;;;25.62;62.41;96662.30;589628;239;66683;-65
2022/03/03 09:09:00;;;;;;;;;;;;;;;25.62;62.02;96656.92;580294;244;68630;-65
2022/03/03 09:11:28;;;;;;;;;;;;;;;25.64;61.97;96660.07;579621;244;63378;-66
2022/03/03 09:13:55;;;;;;;;;;;;;;;25.66;60.63;96655.19;580374;242;67249;-66
2022/03/03 09:16:23;;;;;;;;;;;;;;;25.68;61.38;96647.60;583481;243;66484;-65
2022/03/03 09:18:50;;;;;;;;;;;;;;;25.71;59.79;96660.44;583434;243;63335;-65
2022/03/03 09:21:18;;;;;;;;;;;;;;;25.73;61.84;96658.23;583350;243;68510;-63
2022/03/03 09:23:45;;;;;;;;;;;;;;;25.72;62.84;96656.63;583444;243;68420;-63
2022/03/03 09:26:13;;;;;;;;;;;;;;;25.73;62.08;96657.41;583450;243;65374;-63
2022/03/03 09:28:40;;;;;;;;;;;;;;;25.75;61.53;96658.69;583428;243;68665;-63
2022/03/03 09:31:08;;;;;;;;;;;;;;;25.77;61.47;96661.09;583451;243;68458;-63
2022/03/03 09:33:35;;;;;;;;;;;;;;;25.77;62.18;96653.80;583403;243;65194;-61
2022/03/03 09:36:03;;;;;;;;;;;;;;;25.80;60.53;96661.25;583335;243;68304;-61
2022/03/03 09:38:31;;;;;;;;;;;;;;;25.83;62.96;96665.22;583436;243;68426;-61
2022/03/03 09:40:58;;;;;;;;;;;;;;;25.83;60.58;96668.73;583452;243;65153;-61
2022/03/03 09:43:27;;;;;;;;;;;;;;;25.87;60.44;96667.02;583329;243;68778;-61
2022/03/03 09:45:54;;;;;;;;;;;;;;;25.91;59.88;96667.19;583352;243;69130;-61
2022/03/03 09:48:22;;;;;;;;;;;;;;;25.91;59.97;96677.95;583407;243;65374;-61
2022/03/03 09:50:50;;;;;;;;;;;;;;;25.94;61.11;96673.84;583367;243;68884;-61
2022/03/03 09:53:18;;;;;;;;;;;;;;;25.96;60.69;96674.34;583466;243;67291;-65
2022/03/03 09:55:46;;;;;;;;;;;;;;;25.98;61.44;96672.13;583358;243;65558;-72
2022/03/03 09:58:14;;;;;;;;;;;;;;;25.96;62.01;96671.64;583385;243;68679;-61
2022/03/03 10:00:42;;;;;;;;;;;;;;;25.95;61.36;96676.24;583361;243;68559;-61
2022/03/03 10:03:10;;;;;;;;;;;;;;;25.97;61.52;96667.84;583423;243;65323;-60
2022/03/03 10:05:45;;;;;;;;;;;;;;;25.98;61.40;96661.37;583398;243;66288;-61
2022/03/03 10:08:13;;;;;;;;;;;;;;;25.99;61.27;96665.63;583487;243;68582;-61
2022/03/03 10:10:42;;;;;;;;;;;;;;;26.00;61.23;96664.52;583340;243;65290;-61
2022/03/03 10:13:10;;;;;;;;;;;;;;;26.01;60.75;96669.60;583310;243;69205;-61
2022/03/03 10:15:38;;;;;;;;;;;;;;;26.02;60.52;96663.10;583308;243;66342;-61
2022/03/03 10:18:06;;;;;;;;;;;;;;;26.03;60.03;96667.41;583299;243;63184;-61
2022/03/03 10:20:39;;;;;;;;;;;;;;;26.05;60.26;96675.94;583405;243;68892;-61
2022/03/03 10:23:07;;;;;;;;;;;;;;;26.07;60.58;96667.56;581997;242;68690;-61
2022/03/03 10:25:37;;;;;;;;;;;;;;;26.06;59.20;96669.47;583287;243;63171;-61
2022/03/03 10:28:23;;;;;;;;;;;;;;;26.09;59.54;96670.74;583364;243;68645;-66
2022/03/03 10:31:01;;;;;;;;;;;;;;;26.08;58.93;96671.83;583324;243;66499;-64
2022/03/03 10:33:33;;;;;;;;;;;;;;;26.04;54.83;96668.19;583419;243;62993;-61
2022/03/03 10:36:08;;;;;;;;;;;;;;;26.16;54.58;96660.28;583243;242;66387;-61
2022/03/03 10:38:46;;;;;;;;;;;;;;;26.24;54.44;96659.52;583374;243;66518;-61
2022/03/03 10:41:33;;;;;;;;;;;;;;;26.30;55.08;96660.97;583326;243;65182;-61
2022/03/03 10:44:02;;;;;;;;;;;;;;;26.33;56.32;96662.25;583997;242;68881;-60
2022/03/03 10:46:31;;;;;;;;;;;;;;;26.36;56.51;96664.31;584408;242;68738;-59
2022/03/03 10:48:59;;;;;;;;;;;;;;;26.37;57.09;96671.27;584471;242;65444;-60
2022/03/03 10:51:27;;;;;;;;;;;;;;;26.39;58.52;96669.07;584348;242;68686;-60
2022/03/03 10:53:58;;;;;;;;;;;;;;;26.41;56.69;96666.05;584473;242;68438;-59
2022/03/03 10:56:25;;;;;;;;;;;;;;;26.44;56.93;96670.83;584458;242;65394;-60
2022/03/03 10:58:54;;;;;;;;;;;;;;;26.44;57.95;96662.75;584395;241;68830;-60
2022/03/03 11:01:26;;;;;;;;;;;;;;;26.44;59.46;96666.23;585705;241;66911;-60
2022/03/03 11:03:54;;;;;;;;;;;;;;;26.47;58.49;96670.20;586916;241;65404;-59
2022/03/03 11:06:22;;;;;;;;;;;;;;;26.47;57.54;96670.98;586903;241;66815;-59
2022/03/03 11:08:51;;;;;;;;;;;;;;;26.49;57.33;96663.39;586845;241;68871;-60
2022/03/03 11:11:19;;;;;;;;;;;;;;;26.49;57.44;96663.39;586905;241;65270;-60
2022/03/03 11:13:49;;;;;;;;;;;;;;;26.50;57.94;96656.88;586708;241;66690;-60
2022/03/03 11:16:18;;;;;;;;;;;;;;;26.52;59.01;96656.61;586851;241;68838;-59
2022/03/03 11:18:46;;;;;;;;;;;;;;;26.50;59.97;96650.70;586943;241;63824;-60
2022/03/03 11:21:14;;;;;;;;;;;;;;;26.50;59.44;96642.62;586880;241;68475;-60
2022/03/03 11:23:46;;;;;;;;;;;;;;;26.50;58.65;96648.00;586850;241;66441;-61
2022/03/03 11:26:21;;;;;;;;;;;;;;;26.50;58.50;96642.62;586852;241;63134;-60
2022/03/03 11:29:02;;;;;;;;;;;;;;;26.51;58.62;96638.83;586888;241;66842;-64
2022/03/03 11:31:31;;;;;;;;;;;;;;;26.50;55.99;96632.63;586908;241;68782;-67
2022/03/03 11:34:16;;;;;;;;;;;;;;;26.42;60.67;96641.49;586816;241;65345;-68
2022/03/03 11:36:49;;;;;;;;;;;;;;;26.38;61.49;96645.13;586853;241;68722;-67
2022/03/03 11:39:31;;;;;;;;;;;;;;;26.31;62.06;96651.77;586707;241;68710;-68
2022/03/03 11:42:00;;;;;;;;;;;;;;;26.29;60.90;96645.90;586896;241;65402;-67
2022/03/03 11:44:34;;;;;;;;;;;;;;;26.27;60.90;96655.41;585735;241;66745;-60
2022/03/03 11:47:02;;;;;;;;;;;;;;;26.25;60.75;96649.56;585685;242;66813;-67
2022/03/03 11:49:31;;;;;;;;;;;;;;;26.23;58.19;96652.55;585701;242;65273;-67
2022/03/03 11:52:01;;;;;;;;;;;;;;;26.24;58.69;96656.82;585840;242;66681;-68
2022/03/03 11:54:30;;;;;;;;;;;;;;;26.26;58.92;96665.39;585806;242;68727;-68
2022/03/03 11:57:09;;;;;;;;;;;;;;;26.27;59.25;96666.99;585870;242;65191;-67
2022/03/03 11:59:42;;;;;;;;;;;;;;;26.23;54.41;96665.23;585911;242;68886;-68
2022/03/03 12:02:07;;;;;;;;;;;;;;;26.26;58.38;96667.30;585650;242;68669;-66
2022/03/03 12:04:37;;;;;;;;;;;;;;;26.28;59.64;96662.39;585756;242;65323;-67
2022/03/03 12:07:04;;;;;;;;;;;;;;;26.30;58.16;96666.36;585945;242;68855;-67
2022/03/03 12:09:34;;;;;;;;;;;;;;;26.18;55.32;96654.60;585961;242;68436;-66
2022/03/03 12:12:16;;;;;;;;;;;;;;;26.27;56.92;96648.14;585670;242;65078;-65
2022/03/03 12:15:01;;;;;;;;;;;;;;;26.29;59.38;96648.59;585856;242;66594;-66
2022/03/03 12:17:46;;;;;;;;;;;;;;;26.28;60.42;96655.10;585895;242;69288;-67
2022/03/03 12:20:15;;;;;;;;;;;;;;;26.28;61.36;96668.57;585882;242;63284;-65
2022/03/03 12:23:01;;;;;;;;;;;;;;;26.28;60.86;96657.80;584818;242;68946;-67
2022/03/03 12:25:42;;;;;;;;;;;;;;;26.29;60.82;96658.58;585469;241;68547;-69
2022/03/03 12:28:16;;;;;;;;;;;;;;;26.30;59.93;96652.08;581692;241;65890;-69
2022/03/03 12:30:44;;;;;;;;;;;;;;;26.30;58.89;96660.97;587089;241;66590;-66
2022/03/03 12:33:21;;;;;;;;;;;;;;;26.33;60.37;96659.55;587080;241;66469;-62
2022/03/03 12:35:49;;;;;;;;;;;;;;;26.31;60.28;96659.86;587065;241;65680;-65
2022/03/03 12:38:17;;;;;;;;;;;;;;;26.33;59.74;96659.55;586969;241;69344;-67
2022/03/03 12:40:45;;;;;;;;;;;;;;;26.34;59.09;96659.23;586084;241;68645;-63
2022/03/03 12:43:15;;;;;;;;;;;;;;;26.35;59.26;96652.75;586392;241;63052;-67
2022/03/03 12:45:43;;;;;;;;;;;;;;;26.37;59.07;96655.11;586904;241;66826;-68
2022/03/03 12:48:10;;;;;;;;;;;;;;;26.39;58.98;96652.12;586823;241;65495;-69
2022/03/03 12:50:39;;;;;;;;;;;;;;;26.39;59.58;96642.13;586948;241;65314;-67
2022/03/03 12:53:11;;;;;;;;;;;;;;;26.39;58.80;96652.91;586945;241;66546;-65
2022/03/03 12:55:44;;;;;;;;;;;;;;;26.41;58.26;96645.31;586812;241;66617;-69
2022/03/03 12:58:12;;;;;;;;;;;;;;;26.42;57.97;96651.48;586867;241;64820;-70